Time;durP1;ratioP1;P1;durP2;ratioP2;P2;SDS_P1;SDS_P2;PMS_P1;PMS_P2;Temp;Humidity;BMP_temperature;BMP_pressure;BME280_temperature;BME280_humidity;BME280_pressure;Samples;Min_cycle;Max_cycle;Signal;HPM_P1;HPM_P2
2024/01/21 00:02:21;;;;;;;;;45.50;36.25;;;;;0.71;66.67;102100.59;4993098;28;46419;-40
2024/01/21 00:04:48;;;;;;;;;42.00;35.00;;;;;0.75;66.76;102100.44;4993126;28;45430;-40
2024/01/21 00:07:13;;;;;;;;;52.50;38.50;;;;;0.75;66.94;102096.97;4992910;28;45330;-39
2024/01/21 00:09:38;;;;;;;;;44.00;35.00;;;;;0.74;67.18;102084.78;4993054;28;45445;-40
2024/01/21 00:12:04;;;;;;;;;46.50;37.75;;;;;0.71;66.97;102069.16;4992779;28;45597;-38
2024/01/21 00:14:29;;;;;;;;;50.25;39.25;;;;;0.75;67.13;102063.78;4992889;28;45429;-38
2024/01/21 00:16:55;;;;;;;;;43.75;35.75;;;;;0.78;66.28;102046.25;4992949;28;45361;-39
2024/01/21 00:19:20;;;;;;;;;46.75;34.25;;;;;0.75;66.63;102031.50;4992829;28;45416;-41
2024/01/21 00:21:46;;;;;;;;;31.25;28.50;;;;;0.75;66.64;102024.47;4993050;28;45763;-40
2024/01/21 00:24:11;;;;;;;;;30.50;21.00;;;;;0.71;66.68;102022.03;4992665;28;45516;-39
2024/01/21 00:26:36;;;;;;;;;34.50;27.25;;;;;0.68;66.42;102028.25;4992810;28;45371;-39
2024/01/21 00:29:02;;;;;;;;;37.50;30.50;;;;;0.70;66.65;102025.56;4993078;28;45315;-40
2024/01/21 00:31:27;;;;;;;;;36.50;30.00;;;;;0.71;66.67;102032.50;4992355;28;46757;-39
2024/01/21 00:33:53;;;;;;;;;39.50;29.00;;;;;0.67;66.51;102018.66;4992699;28;45319;-40
2024/01/21 00:36:19;;;;;;;;;30.00;25.50;;;;;0.68;66.53;102036.09;4995903;28;45391;-39
2024/01/21 00:38:44;;;;;;;;;35.75;29.50;;;;;0.75;66.30;102060.31;4995878;28;45307;-43
2024/01/21 00:41:16;;;;;;;;;45.25;34.75;;;;;0.80;65.92;102081.09;4995408;28;46434;-40
2024/01/21 00:43:41;;;;;;;;;45.75;37.25;;;;;0.78;66.84;102061.97;4995355;28;45424;-39
2024/01/21 00:46:07;;;;;;;;;42.25;32.00;;;;;0.80;66.21;102063.66;4995621;28;45275;-40
2024/01/21 00:48:33;;;;;;;;;48.75;34.00;;;;;0.79;65.76;102051.44;4995421;28;45253;-39
2024/01/21 00:50:59;;;;;;;;;56.50;40.00;;;;;0.79;66.49;102046.19;4995263;28;45547;-41
2024/01/21 00:53:24;;;;;;;;;46.50;37.75;;;;;0.77;66.10;102047.16;4995162;27;45435;-40
2024/01/21 00:55:49;;;;;;;;;35.25;30.50;;;;;0.72;66.24;102029.84;4995571;28;45298;-40
2024/01/21 00:58:14;;;;;;;;;41.25;32.75;;;;;0.82;66.02;102046.09;4994621;28;45371;-41
2024/01/21 01:00:40;;;;;;;;;37.25;28.50;;;;;0.82;65.99;102038.25;4995209;28;46267;-41
2024/01/21 01:03:05;;;;;;;;;38.50;26.00;;;;;0.79;65.91;102040.97;4993959;28;45227;-41
2024/01/21 01:05:30;;;;;;;;;45.00;30.00;;;;;0.84;66.05;102059.13;4995465;28;45323;-38
2024/01/21 01:07:56;;;;;;;;;35.75;30.25;;;;;0.83;65.78;102053.03;4995558;28;45274;-40
2024/01/21 01:10:21;;;;;;;;;44.00;35.00;;;;;0.80;65.61;102053.16;4994997;28;46203;-41
2024/01/21 01:12:47;;;;;;;;;43.50;32.00;;;;;0.75;65.35;102037.56;4993983;28;45224;-41
2024/01/21 01:15:12;;;;;;;;;54.00;37.50;;;;;0.78;65.96;102048.88;4995077;28;45390;-41
2024/01/21 01:17:37;;;;;;;;;36.25;31.00;;;;;0.68;65.46;102038.72;4995473;28;45318;-41
2024/01/21 01:20:04;;;;;;;;;55.75;42.25;;;;;0.75;65.97;102061.16;4995121;28;45367;-40
2024/01/21 01:22:29;;;;;;;;;47.00;36.50;;;;;0.75;65.54;102060.31;4995037;28;45363;-40
2024/01/21 01:24:54;;;;;;;;;45.50;32.50;;;;;0.74;65.70;102050.75;5010266;28;45253;-40
2024/01/21 01:27:20;;;;;;;;;36.00;30.75;;;;;0.74;65.63;102053.34;4995153;28;45328;-40
2024/01/21 01:29:45;;;;;;;;;56.25;38.75;;;;;0.71;65.48;102053.44;4993818;28;46193;-39
2024/01/21 01:32:11;;;;;;;;;38.75;32.50;;;;;0.70;65.88;102034.28;4994639;28;49178;-38
2024/01/21 01:34:38;;;;;;;;;39.50;29.00;;;;;0.72;65.46;102039.47;4994985;28;45401;-39
2024/01/21 01:37:04;;;;;;;;;37.25;33.50;;;;;0.70;65.51;102049.97;4995129;28;45416;-39
2024/01/21 01:39:29;;;;;;;;;35.25;30.00;;;;;0.71;65.82;102053.44;4994568;28;46331;-41
2024/01/21 01:41:55;;;;;;;;;46.50;27.75;;;;;0.67;65.36;102049.22;4994708;28;45224;-39
2024/01/21 01:44:20;;;;;;;;;41.25;37.25;;;;;0.66;65.67;102047.53;4995056;28;45448;-39
2024/01/21 01:46:46;;;;;;;;;45.50;33.25;;;;;0.68;65.10;102048.34;4994269;28;45420;-39
2024/01/21 01:49:12;;;;;;;;;49.75;33.25;;;;;0.69;65.44;102043.03;4994362;28;46466;-39
2024/01/21 01:51:38;;;;;;;;;34.00;30.00;;;;;0.70;65.73;102046.50;4994649;28;45374;-39
2024/01/21 01:54:04;;;;;;;;;46.00;33.25;;;;;0.72;65.74;102042.09;4995005;28;45365;-37
2024/01/21 01:56:29;;;;;;;;;46.50;34.25;;;;;0.73;65.63;102052.50;4994895;28;45311;-39
2024/01/21 01:59:01;;;;;;;;;36.50;34.00;;;;;0.73;65.88;102056.91;4996826;27;45861;-40
2024/01/21 02:01:28;;;;;;;;;45.50;30.75;;;;;0.75;65.79;102049.81;4994616;28;45333;-39
2024/01/21 02:03:55;;;;;;;;;39.25;32.00;;;;;0.71;65.37;102051.69;4994665;28;45425;-40
2024/01/21 02:06:20;;;;;;;;;39.75;30.75;;;;;0.75;65.90;102063.78;4993807;28;45430;-39
2024/01/21 02:08:45;;;;;;;;;34.75;25.50;;;;;0.75;65.45;102061.16;4994690;28;45313;-39
2024/01/21 02:11:11;;;;;;;;;44.50;34.50;;;;;0.79;65.63;102076.78;4994416;28;45462;-40
2024/01/21 02:13:36;;;;;;;;;16.25;12.50;;;;;0.78;65.81;102073.31;4994622;28;45456;-40
2024/01/21 02:16:02;;;;;;;;;50.50;37.50;;;;;0.75;65.76;102068.16;4994817;28;45428;-38
2024/01/21 02:18:27;;;;;;;;;37.00;29.00;;;;;0.79;65.62;102072.38;4994501;28;46349;-40
2024/01/21 02:20:52;;;;;;;;;43.00;35.25;;;;;0.86;65.50;102070.44;4994421;28;45355;-41
2024/01/21 02:23:18;;;;;;;;;39.75;33.25;;;;;0.84;65.04;102070.47;4994833;28;45239;-39
2024/01/21 02:25:43;;;;;;;;;24.25;22.50;;;;;0.87;65.64;102077.38;4994883;28;45219;-39
2024/01/21 02:28:08;;;;;;;;;53.25;39.25;;;;;0.86;65.52;102068.66;4994521;28;45558;-39
2024/01/21 02:30:40;;;;;;;;;44.25;34.50;;;;;0.86;65.81;102070.44;4994564;28;45462;-40
2024/01/21 02:33:06;;;;;;;;;40.00;32.50;;;;;0.88;65.52;102064.22;4994991;28;45325;-40
2024/01/21 02:35:32;;;;;;;;;33.25;25.25;;;;;0.89;65.94;102057.22;5079947;27;45506;-40
2024/01/21 02:37:57;;;;;;;;;31.50;29.00;;;;;0.92;65.62;102067.59;4994318;28;46229;-40
2024/01/21 02:40:22;;;;;;;;;38.25;33.00;;;;;0.90;65.86;102058.94;4994222;28;45350;-38
2024/01/21 02:42:48;;;;;;;;;48.25;31.00;;;;;0.89;65.66;102068.56;4994801;28;45424;-41
2024/01/21 02:45:13;;;;;;;;;36.25;25.25;;;;;0.95;65.28;102077.97;4994736;28;45343;-41
2024/01/21 02:47:38;;;;;;;;;46.75;33.00;;;;;0.96;65.73;102082.28;5078967;27;47265;-40
2024/01/21 02:50:04;;;;;;;;;37.00;28.75;;;;;0.95;65.73;102078.81;4993742;28;45333;-38
2024/01/21 02:52:30;;;;;;;;;50.75;37.50;;;;;0.86;65.60;102073.06;4993939;28;45413;-40
2024/01/21 02:54:55;;;;;;;;;45.75;34.50;;;;;0.80;65.89;102058.41;4994006;28;45826;-40
2024/01/21 02:57:20;;;;;;;;;39.00;31.50;;;;;0.93;65.32;102069.31;4992178;28;47334;-40
2024/01/21 02:59:46;;;;;;;;;38.50;26.25;;;;;0.94;65.70;102063.16;4993872;28;45397;-40
2024/01/21 03:02:11;;;;;;;;;26.25;20.50;;;;;0.94;65.91;102063.16;4993923;28;45453;-40
2024/01/21 03:04:37;;;;;;;;;43.00;30.00;;;;;0.98;66.03;102068.25;4994221;28;45269;-43
2024/01/21 03:07:02;;;;;;;;;37.75;32.75;;;;;1.02;65.73;102065.53;4993744;28;46447;-40
2024/01/21 03:09:27;;;;;;;;;53.25;33.75;;;;;1.01;65.69;102035.81;4993532;28;45461;-40
2024/01/21 03:11:56;;;;;;;;;48.50;30.75;;;;;1.03;65.64;102039.25;4993598;28;45491;-40
2024/01/21 03:14:21;;;;;;;;;38.50;24.50;;;;;1.00;65.30;102031.50;4994031;28;45396;-39
2024/01/21 03:16:46;;;;;;;;;32.50;22.50;;;;;1.03;65.37;102031.41;4993702;28;45407;-39
2024/01/21 03:19:12;;;;;;;;;42.25;28.50;;;;;1.00;65.79;102034.13;4993560;28;45426;-39
2024/01/21 03:21:37;;;;;;;;;42.00;33.00;;;;;0.98;65.35;102028.09;4993716;28;45402;-39
2024/01/21 03:24:02;;;;;;;;;36.25;29.25;;;;;0.95;65.72;102020.34;4993858;28;45426;-37
2024/01/21 03:26:28;;;;;;;;;36.00;28.00;;;;;0.92;65.97;102021.28;4993629;28;46458;-38
2024/01/21 03:28:53;;;;;;;;;41.00;24.75;;;;;0.88;65.96;102013.59;5008849;28;45170;-39
2024/01/21 03:31:21;;;;;;;;;34.75;27.50;;;;;0.90;65.36;102022.25;4993571;28;45378;-39
2024/01/21 03:33:47;;;;;;;;;30.50;27.25;;;;;0.93;65.63;102036.13;4993939;28;45295;-39
2024/01/21 03:36:12;;;;;;;;;30.00;23.00;;;;;0.91;65.87;102037.91;4993372;28;46422;-39
2024/01/21 03:38:39;;;;;;;;;29.75;27.00;;;;;0.92;65.59;102052.72;4993332;28;45640;-37
2024/01/21 03:41:04;;;;;;;;;25.50;18.25;;;;;0.94;65.17;102050.06;4993347;28;45436;-39
2024/01/21 03:43:29;;;;;;;;;23.25;22.00;;;;;0.98;65.08;102051.69;4993343;28;45473;-39
2024/01/21 03:45:55;;;;;;;;;30.25;18.50;;;;;1.07;65.23;102066.22;4993208;28;46102;-39
2024/01/21 03:48:20;;;;;;;;;24.50;19.50;;;;;1.08;65.14;102057.44;4993310;28;45365;-39
2024/01/21 03:50:45;;;;;;;;;28.50;24.00;;;;;1.13;64.97;102058.97;4994324;28;45578;-38
2024/01/21 03:53:11;;;;;;;;;23.25;20.00;;;;;1.16;65.15;102066.75;4993281;28;45441;-40
2024/01/21 03:55:36;;;;;;;;;31.25;21.25;;;;;1.17;64.90;102057.13;4993095;28;45502;-39
2024/01/21 03:58:01;;;;;;;;;19.00;18.75;;;;;1.19;64.31;102056.16;4993043;28;45482;-40
2024/01/21 04:00:27;;;;;;;;;29.25;21.50;;;;;1.21;64.83;102053.47;4993173;28;45380;-40
2024/01/21 04:02:52;;;;;;;;;34.75;22.00;;;;;1.22;64.38;102058.69;4993167;28;45374;-40
2024/01/21 04:05:17;;;;;;;;;33.75;22.75;;;;;1.24;64.55;102058.63;4993080;28;45239;-39
2024/01/21 04:07:43;;;;;;;;;25.50;20.75;;;;;1.27;64.51;102063.75;4992982;28;45283;-40
2024/01/21 04:10:10;;;;;;;;;23.50;17.75;;;;;1.27;64.54;102061.13;4994673;28;45220;-40
2024/01/21 04:12:36;;;;;;;;;26.00;21.00;;;;;1.29;64.62;102055.81;4996084;28;45517;-40
2024/01/21 04:15:01;;;;;;;;;27.75;22.00;;;;;1.30;64.23;102057.53;4995992;28;46263;-40
2024/01/21 04:17:27;;;;;;;;;18.25;15.25;;;;;1.30;64.43;102053.13;5081366;27;45356;-39
2024/01/21 04:19:52;;;;;;;;;25.25;19.50;;;;;1.35;63.98;102056.47;4996089;28;45311;-40
2024/01/21 04:22:18;;;;;;;;;31.00;22.00;;;;;1.36;64.20;102044.22;4996295;28;45505;-40
2024/01/21 04:24:46;;;;;;;;;38.25;24.25;;;;;1.31;63.63;102027.81;4995687;28;46328;-40
2024/01/21 04:27:11;;;;;;;;;34.50;19.50;;;;;1.39;63.81;102029.25;4995619;28;45523;-39
2024/01/21 04:29:37;;;;;;;;;25.50;18.50;;;;;1.37;63.96;102025.81;4995894;28;45403;-40
2024/01/21 04:32:02;;;;;;;;;36.25;27.75;;;;;1.40;63.84;102030.94;4995933;28;45300;-39
2024/01/21 04:34:27;;;;;;;;;22.50;17.75;;;;;1.39;63.84;102021.38;4994230;28;47007;-40
2024/01/21 04:36:53;;;;;;;;;21.25;14.50;;;;;1.40;63.54;102014.34;4995481;28;45334;-40
2024/01/21 04:39:21;;;;;;;;;36.50;24.75;;;;;1.29;63.87;101995.53;4995805;28;45420;-38
2024/01/21 04:41:47;;;;;;;;;36.75;25.00;;;;;1.43;63.21;102014.22;4995984;28;45379;-38
2024/01/21 04:44:12;;;;;;;;;37.00;25.00;;;;;1.43;63.29;102008.97;4995511;28;45495;-39
2024/01/21 04:46:37;;;;;;;;;37.00;26.50;;;;;1.41;62.95;101990.69;4995587;28;45388;-38
2024/01/21 04:49:03;;;;;;;;;30.50;21.25;;;;;1.40;63.13;101957.53;4995415;28;45470;-39
2024/01/21 04:51:28;;;;;;;;;28.50;24.75;;;;;1.34;63.28;101955.13;4995883;28;45437;-39
2024/01/21 04:53:54;;;;;;;;;30.25;22.00;;;;;1.40;62.94;101973.25;4995246;28;46267;-39
2024/01/21 04:56:19;;;;;;;;;29.25;21.00;;;;;1.40;62.35;101986.38;4995370;28;45367;-39
2024/01/21 04:58:45;;;;;;;;;28.00;18.75;;;;;1.46;62.81;101993.13;4995636;28;45324;-39
2024/01/21 05:01:12;;;;;;;;;24.00;16.75;;;;;1.50;62.41;101992.97;4995474;28;45447;-39
2024/01/21 05:03:38;;;;;;;;;26.25;21.00;;;;;1.58;61.94;101990.06;4995422;28;46178;-39
2024/01/21 05:06:04;;;;;;;;;26.75;17.50;;;;;1.66;62.11;101989.78;4995295;28;45443;-39
2024/01/21 05:08:29;;;;;;;;;24.00;18.25;;;;;1.57;61.33;101969.16;4996760;28;45255;-39
2024/01/21 05:10:54;;;;;;;;;21.25;18.00;;;;;1.73;61.24;101978.97;4995645;28;45504;-39
2024/01/21 05:13:20;;;;;;;;;26.00;17.00;;;;;1.78;60.87;101968.31;4994808;28;46322;-40
2024/01/21 05:15:45;;;;;;;;;23.00;18.00;;;;;1.83;60.53;101962.88;4995207;28;45332;-39
2024/01/21 05:18:11;;;;;;;;;20.50;15.50;;;;;1.85;60.38;101967.13;4995308;28;45394;-39
2024/01/21 05:20:36;;;;;;;;;20.50;14.75;;;;;1.88;60.16;101974.88;4995755;28;45322;-39
2024/01/21 05:23:02;;;;;;;;;26.50;17.00;;;;;1.94;60.49;101972.03;4995210;28;47039;-39
2024/01/21 05:25:28;;;;;;;;;24.75;18.25;;;;;1.97;59.78;101958.78;4995133;28;45181;-39
2024/01/21 05:27:54;;;;;;;;;18.25;14.75;;;;;2.02;59.32;101957.72;4995169;28;45350;-40
2024/01/21 05:30:20;;;;;;;;;17.75;11.50;;;;;2.03;59.88;101948.97;4995546;28;45340;-39
2024/01/21 05:32:46;;;;;;;;;27.00;16.50;;;;;2.05;59.89;101950.59;4994979;28;46802;-38
2024/01/21 05:35:12;;;;;;;;;27.00;19.00;;;;;2.13;59.27;101950.28;4995301;28;45420;-39
2024/01/21 05:37:38;;;;;;;;;20.75;15.50;;;;;2.16;59.79;101955.41;4993642;28;45408;-39
2024/01/21 05:40:03;;;;;;;;;19.25;17.00;;;;;2.18;58.95;101932.56;4995216;28;45363;-38
2024/01/21 05:42:29;;;;;;;;;20.00;16.25;;;;;2.23;59.51;101927.97;4994542;28;46521;-39
2024/01/21 05:44:55;;;;;;;;;17.75;14.00;;;;;2.24;58.97;101919.22;4994994;28;45376;-37
2024/01/21 05:47:20;;;;;;;;;18.25;14.00;;;;;2.18;60.27;101901.91;4994993;28;45787;-40
2024/01/21 05:49:46;;;;;;;;;21.00;18.50;;;;;2.29;59.11;101924.25;4994837;28;45251;-38
2024/01/21 05:52:11;;;;;;;;;21.50;15.75;;;;;2.31;59.71;101935.53;4994825;28;46694;-40
2024/01/21 05:54:36;;;;;;;;;15.75;15.00;;;;;2.36;59.63;101941.44;4994806;28;45254;-39
2024/01/21 05:57:02;;;;;;;;;6.75;6.75;;;;;2.37;59.53;101959.78;4994805;28;45631;-40
2024/01/21 05:59:27;;;;;;;;;18.25;12.75;;;;;2.39;60.10;101970.22;4995049;28;45347;-40
2024/01/21 06:01:54;;;;;;;;;18.25;11.25;;;;;2.45;60.11;101957.69;4996079;28;45452;-40
2024/01/21 06:04:20;;;;;;;;;18.75;14.00;;;;;2.46;59.75;101954.13;4994692;28;45406;-40
2024/01/21 06:06:46;;;;;;;;;7.00;4.00;;;;;2.47;60.08;101987.34;4994889;28;45354;-40
2024/01/21 06:09:11;;;;;;;;;16.50;12.25;;;;;2.49;60.55;101966.28;4994703;28;45342;-40
2024/01/21 06:11:38;;;;;;;;;20.00;12.50;;;;;2.51;60.52;101953.94;4994575;28;46563;-39
2024/01/21 06:14:03;;;;;;;;;17.00;12.00;;;;;2.50;60.31;101960.97;4994161;28;45569;-40
2024/01/21 06:16:29;;;;;;;;;17.25;8.75;;;;;2.55;60.23;101966.03;4994527;28;45235;-39
2024/01/21 06:18:54;;;;;;;;;16.50;13.25;;;;;2.53;60.89;101973.13;4994681;28;45302;-39
2024/01/21 06:21:19;;;;;;;;;12.50;10.50;;;;;2.60;60.30;101971.94;4994482;28;46469;-40
2024/01/21 06:23:45;;;;;;;;;15.25;12.75;;;;;2.62;60.79;101964.00;4994477;28;45268;-40
2024/01/21 06:26:22;;;;;;;;;13.25;10.50;;;;;2.61;60.36;101946.50;4994523;28;45436;-40
2024/01/21 06:28:47;;;;;;;;;17.25;17.25;;;;;2.60;60.57;101958.78;4994600;28;45388;-39
2024/01/21 06:31:13;;;;;;;;;24.00;16.75;;;;;2.63;60.81;101971.81;4994331;28;46541;-39
2024/01/21 06:33:40;;;;;;;;;17.00;12.00;;;;;2.67;60.83;101977.78;4993783;28;45555;-40
2024/01/21 06:36:05;;;;;;;;;10.00;10.00;;;;;2.68;61.31;101975.09;4994758;28;45310;-39
2024/01/21 06:38:31;;;;;;;;;16.25;10.00;;;;;2.66;61.54;101976.09;4994538;28;45385;-39
2024/01/21 06:40:56;;;;;;;;;22.00;13.50;;;;;2.70;61.50;101990.81;4993984;28;50378;-40
2024/01/21 06:43:21;;;;;;;;;18.00;15.00;;;;;2.68;60.71;101968.97;4994074;28;45351;-39
2024/01/21 06:45:47;;;;;;;;;16.00;12.00;;;;;2.70;61.54;101954.88;4994122;28;45362;-37
2024/01/21 06:48:12;;;;;;;;;14.00;11.25;;;;;2.65;61.62;101964.69;4994548;28;45384;-40
2024/01/21 06:50:37;;;;;;;;;22.75;16.25;;;;;2.63;62.57;101974.44;4993876;28;45459;-40
2024/01/21 06:53:03;;;;;;;;;28.00;22.00;;;;;2.65;61.75;101979.59;5078709;27;45394;-40
2024/01/21 06:55:28;;;;;;;;;37.50;25.25;;;;;2.65;62.68;101990.13;4994104;28;45464;-40
2024/01/21 06:57:54;;;;;;;;;24.50;21.25;;;;;2.59;62.22;101980.72;4994168;28;45491;-39
2024/01/21 07:00:19;;;;;;;;;27.25;26.00;;;;;2.61;62.60;102001.69;4994125;28;46179;-39
2024/01/21 07:02:45;;;;;;;;;29.75;22.75;;;;;2.62;62.30;101988.50;5009056;28;45253;-40
2024/01/21 07:05:10;;;;;;;;;23.00;19.50;;;;;2.54;62.53;101960.84;4993927;28;45341;-39
2024/01/21 07:07:35;;;;;;;;;24.50;20.75;;;;;2.62;63.12;101980.63;4994161;28;45385;-40
2024/01/21 07:10:01;;;;;;;;;22.50;16.25;;;;;2.61;62.67;101973.66;4993702;28;46264;-39
2024/01/21 07:12:27;;;;;;;;;27.50;21.25;;;;;2.60;62.90;101982.44;4993604;28;45318;-40
2024/01/21 07:14:52;;;;;;;;;26.75;22.50;;;;;2.60;63.23;101987.69;4993775;28;45395;-39
2024/01/21 07:17:17;;;;;;;;;35.75;19.50;;;;;2.53;64.00;101996.78;4992746;28;45423;-39
2024/01/21 07:19:43;;;;;;;;;18.00;15.75;;;;;2.64;63.25;102023.41;4993741;28;45892;-40
2024/01/21 07:22:09;;;;;;;;;16.25;12.50;;;;;2.69;63.97;102045.09;4993599;28;45434;-40
2024/01/21 07:24:34;;;;;;;;;15.75;15.50;;;;;2.73;63.02;102036.16;4993812;28;45425;-39
2024/01/21 07:27:00;;;;;;;;;23.00;17.25;;;;;2.75;63.58;102026.47;4993807;28;45236;-40
2024/01/21 07:29:25;;;;;;;;;14.50;11.50;;;;;2.78;63.81;102027.22;4993254;28;46615;-40
2024/01/21 07:31:51;;;;;;;;;15.00;12.50;;;;;2.77;64.06;102028.16;4993580;28;45467;-40
2024/01/21 07:34:16;;;;;;;;;14.00;13.00;;;;;2.78;64.58;102033.34;4993686;28;45351;-40
2024/01/21 07:36:41;;;;;;;;;21.50;16.50;;;;;2.80;64.73;102018.38;4993740;28;45385;-40
2024/01/21 07:39:07;;;;;;;;;27.75;24.75;;;;;2.84;64.21;102033.09;4993323;28;45433;-39
2024/01/21 07:41:32;;;;;;;;;21.25;21.25;;;;;2.88;64.31;102020.69;4993371;28;45469;-40
2024/01/21 07:43:58;;;;;;;;;36.75;25.00;;;;;2.90;63.83;102022.31;4993318;28;45400;-38
2024/01/21 07:46:23;;;;;;;;;40.25;32.00;;;;;2.90;63.63;102024.09;4996422;28;45540;-38
2024/01/21 07:48:49;;;;;;;;;44.75;29.50;;;;;2.90;64.79;102018.81;4996055;28;46930;-40
2024/01/21 07:51:18;;;;;;;;;20.50;14.25;;;;;2.85;64.24;102031.31;4995458;28;45412;-40
2024/01/21 07:53:44;;;;;;;;;25.25;18.75;;;;;2.94;63.86;102071.19;4995535;28;45406;-40
2024/01/21 07:56:10;;;;;;;;;27.25;21.50;;;;;2.94;64.03;102058.06;4995580;28;45336;-40
2024/01/21 07:58:35;;;;;;;;;19.00;14.50;;;;;2.97;63.94;102055.31;4995146;28;45268;-39
2024/01/21 08:01:01;;;;;;;;;10.75;9.50;;;;;3.03;64.41;102079.59;4995293;28;45426;-40
2024/01/21 08:03:26;;;;;;;;;16.00;15.00;;;;;3.08;64.39;102075.03;4995340;28;45553;-40
2024/01/21 08:05:53;;;;;;;;;16.25;10.75;;;;;3.10;63.96;102065.28;4995361;28;45252;-40
2024/01/21 08:08:18;;;;;;;;;21.75;14.50;;;;;3.14;63.94;102066.88;4993992;28;46174;-38
2024/01/21 08:10:44;;;;;;;;;12.25;10.25;;;;;3.18;63.88;102065.81;5010438;28;45384;-38
2024/01/21 08:13:09;;;;;;;;;19.25;15.25;;;;;3.19;63.92;102070.16;4995046;28;45219;-46
2024/01/21 08:15:34;;;;;;;;;12.00;12.00;;;;;3.26;64.18;102076.84;4995332;28;45422;-39
2024/01/21 08:18:00;;;;;;;;;25.25;16.25;;;;;3.27;64.25;102082.97;5080557;27;45429;-39
2024/01/21 08:20:25;;;;;;;;;15.25;14.00;;;;;3.23;64.57;102069.09;4995087;28;45409;-40
2024/01/21 08:22:50;;;;;;;;;16.00;13.00;;;;;3.38;64.05;102089.47;4995098;28;45351;-40
2024/01/21 08:25:16;;;;;;;;;9.75;4.75;;;;;3.42;64.44;102092.81;4994959;28;45263;-38
2024/01/21 08:27:42;;;;;;;;;13.50;11.50;;;;;3.45;63.88;102072.47;5080518;27;46757;-40
2024/01/21 08:30:08;;;;;;;;;18.25;14.00;;;;;3.41;64.19;102057.78;4994834;28;45369;-38
2024/01/21 08:32:34;;;;;;;;;12.75;12.75;;;;;3.46;63.89;102074.22;4996155;28;45540;-39
2024/01/21 08:34:59;;;;;;;;;12.25;11.00;;;;;3.47;64.50;102086.44;4994995;28;45317;-38
2024/01/21 08:37:25;;;;;;;;;16.75;14.00;;;;;3.51;64.73;102105.56;4994686;28;46119;-38
2024/01/21 08:39:50;;;;;;;;;14.75;12.00;;;;;3.59;63.85;102116.63;4994687;28;45399;-39
2024/01/21 08:42:15;;;;;;;;;11.25;9.75;;;;;3.65;64.67;102120.75;4994644;28;45409;-40
2024/01/21 08:44:41;;;;;;;;;15.00;12.50;;;;;3.69;63.76;102128.44;4994749;28;45463;-39
2024/01/21 08:47:06;;;;;;;;;13.00;11.25;;;;;3.67;64.82;102135.53;4994386;28;47295;-38
2024/01/21 08:49:31;;;;;;;;;15.25;10.25;;;;;3.74;64.02;102151.91;4956062;28;1114337;-37
2024/01/21 08:51:57;;;;;;;;;15.50;12.50;;;;;3.75;64.38;102161.53;4995523;28;45606;-39
2024/01/21 08:54:23;;;;;;;;;11.75;10.00;;;;;3.77;64.17;102166.72;4995714;28;45440;-39
2024/01/21 08:56:48;;;;;;;;;13.00;10.75;;;;;3.78;64.62;102155.25;4995162;28;47129;-38
2024/01/21 08:59:13;;;;;;;;;13.25;11.00;;;;;3.82;64.95;102155.06;4995090;28;45369;-39
2024/01/21 09:01:39;;;;;;;;;13.25;10.75;;;;;3.85;64.93;102161.97;4995452;28;45372;-39
2024/01/21 09:04:04;;;;;;;;;18.75;9.75;;;;;3.86;64.70;102156.63;4995652;28;45564;-39
2024/01/21 09:06:30;;;;;;;;;13.50;9.75;;;;;3.81;65.51;102149.88;4995269;28;46088;-39
2024/01/21 09:08:56;;;;;;;;;16.50;12.25;;;;;3.95;65.15;102155.34;4995213;28;45321;-39
2024/01/21 09:11:23;;;;;;;;;16.50;11.00;;;;;3.96;65.34;102165.84;4995392;28;45320;-39
2024/01/21 09:13:48;;;;;;;;;10.75;10.50;;;;;3.95;65.59;102155.34;4994149;28;45530;-40
2024/01/21 09:16:19;;;;;;;;;11.00;11.00;;;;;3.88;65.53;102130.25;4994977;28;45956;-39
2024/01/21 09:18:44;;;;;;;;;12.00;10.25;;;;;4.02;65.09;102156.78;4995205;28;45406;-39
2024/01/21 09:21:09;;;;;;;;;21.50;14.25;;;;;4.04;65.46;102152.28;4995033;28;45389;-40
2024/01/21 09:23:35;;;;;;;;;20.25;11.50;;;;;4.02;65.70;102145.41;4995574;27;45351;-37
2024/01/21 09:26:00;;;;;;;;;18.75;11.25;;;;;4.08;64.65;102148.59;5024085;27;46079;-38
2024/01/21 09:28:25;;;;;;;;;16.75;11.00;;;;;4.11;65.09;102152.88;4994810;28;45330;-40
2024/01/21 09:30:51;;;;;;;;;10.00;10.00;;;;;4.13;65.26;102153.66;4995164;28;45570;-40
2024/01/21 09:33:17;;;;;;;;;13.25;10.75;;;;;4.14;65.22;102160.66;4995176;28;45391;-40
2024/01/21 09:35:43;;;;;;;;;13.25;12.00;;;;;4.19;65.05;102170.03;4994917;28;46214;-39
2024/01/21 09:38:10;;;;;;;;;12.75;11.00;;;;;4.09;65.64;102158.22;4995018;28;45415;-40
2024/01/21 09:40:36;;;;;;;;;11.00;9.75;;;;;4.22;65.37;102161.16;4995001;28;45436;-38
2024/01/21 09:43:01;;;;;;;;;14.50;12.00;;;;;4.15;64.48;102139.50;4994763;28;45429;-40
2024/01/21 09:45:31;;;;;;;;;20.25;14.00;;;;;4.34;64.85;102146.53;5024899;27;47030;-39
2024/01/21 09:47:57;;;;;;;;;16.75;10.25;;;;;4.41;65.16;102142.69;5045339;27;45470;-38
2024/01/21 09:50:25;;;;;;;;;24.75;19.25;;;;;4.47;64.51;102126.59;5041561;27;45438;-39
2024/01/21 09:52:51;;;;;;;;;30.00;23.75;;;;;4.56;65.01;102147.25;4994125;28;45328;-40
2024/01/21 09:55:16;;;;;;;;;20.50;19.75;;;;;4.63;64.18;102139.88;4993477;28;45438;-38
2024/01/21 09:57:41;;;;;;;;;30.00;19.50;;;;;4.58;64.11;102142.72;4993763;28;45307;-38
2024/01/21 10:00:09;;;;;;;;;16.25;12.00;;;;;4.71;64.29;102177.25;4993483;28;45459;-39
2024/01/21 10:02:35;;;;;;;;;23.50;17.75;;;;;4.63;64.50;102182.91;4993637;28;45402;-39
2024/01/21 10:05:00;;;;;;;;;19.75;14.50;;;;;4.61;64.36;102187.41;4993337;28;46286;-37
2024/01/21 10:07:26;;;;;;;;;22.00;16.25;;;;;4.64;64.09;102189.06;4992661;28;45313;-38
2024/01/21 10:09:54;;;;;;;;;19.75;14.50;;;;;4.63;64.02;102182.03;4994627;28;45455;-40
2024/01/21 10:12:23;;;;;;;;;33.50;28.75;;;;;4.61;64.98;102182.13;4994696;28;45429;-38
2024/01/21 10:14:48;;;;;;;;;27.00;24.50;;;;;4.64;64.53;102197.81;4994179;28;46543;-41
2024/01/21 10:17:14;;;;;;;;;41.50;35.50;;;;;4.62;65.53;102194.38;4994528;28;45402;-41
2024/01/21 10:19:39;;;;;;;;;28.50;23.00;;;;;4.62;64.47;102193.53;4994360;28;45376;-40
2024/01/21 10:22:09;;;;;;;;;29.75;26.50;;;;;4.63;64.53;102184.69;4994687;28;45253;-41
2024/01/21 10:24:37;;;;;;;;;26.50;20.50;;;;;4.63;65.18;102179.41;4994468;28;46144;-40
2024/01/21 10:27:05;;;;;;;;;26.75;18.50;;;;;4.62;65.25;102186.47;4993946;28;45475;-39
2024/01/21 10:29:30;;;;;;;;;21.75;18.75;;;;;4.65;65.45;102182.84;4993621;28;45331;-39
2024/01/21 10:31:56;;;;;;;;;25.75;21.50;;;;;4.65;65.00;102175.78;4994590;28;45469;-40
2024/01/21 10:34:22;;;;;;;;;20.50;16.25;;;;;4.63;65.41;102155.69;4994190;28;45985;-39
2024/01/21 10:36:51;;;;;;;;;15.75;15.75;;;;;4.73;64.99;102172.78;4994090;28;45302;-40
2024/01/21 10:39:20;;;;;;;;;18.25;14.25;;;;;4.75;66.13;102173.56;4994280;28;45414;-40
2024/01/21 10:41:46;;;;;;;;;11.75;11.75;;;;;4.72;65.38;102156.13;4994405;28;45389;-41
2024/01/21 10:44:11;;;;;;;;;20.00;17.75;;;;;4.68;66.19;102136.13;4993796;28;46221;-40
2024/01/21 10:46:38;;;;;;;;;21.75;17.25;;;;;4.72;65.95;102118.38;4993709;28;45488;-38
2024/01/21 10:49:04;;;;;;;;;19.25;16.75;;;;;4.81;65.71;102119.69;4994031;28;45274;-40
2024/01/21 10:51:30;;;;;;;;;20.50;17.50;;;;;4.84;66.31;102125.63;4992776;28;45531;-40
2024/01/21 10:53:57;;;;;;;;;21.25;19.00;;;;;4.88;66.45;102116.66;4993713;28;46516;-37
2024/01/21 10:56:25;;;;;;;;;19.00;18.50;;;;;4.92;66.88;102126.13;4992518;28;45367;-39
2024/01/21 10:58:51;;;;;;;;;19.75;19.25;;;;;4.86;66.26;102109.78;4994031;28;45352;-40
2024/01/21 11:01:17;;;;;;;;;22.75;16.75;;;;;4.97;66.56;102120.63;4993926;28;45454;-39
2024/01/21 11:03:44;;;;;;;;;19.00;13.50;;;;;4.96;66.60;102114.50;4993669;28;46430;-40
2024/01/21 11:06:10;;;;;;;;;29.00;21.00;;;;;5.00;67.56;102112.56;4993621;28;45331;-38
2024/01/21 11:08:37;;;;;;;;;28.25;19.00;;;;;5.02;67.40;102123.91;4994017;28;45277;-40
2024/01/21 11:11:08;;;;;;;;;16.25;16.25;;;;;5.02;67.26;102123.91;4993920;28;45310;-39